sensor_id;sensor_type;location;lat;lon;timestamp;temperature;humidity
21473;DHT22;10898;48.072;11.682;2022-07-06T00:02:02;18.30;99.90
21473;DHT22;10898;48.072;11.682;2022-07-06T00:04:08;18.30;99.90
21473;DHT22;10898;48.072;11.682;2022-07-06T00:06:14;18.40;99.90
21473;DHT22;10898;48.072;11.682;2022-07-06T00:08:20;18.40;99.90
21473;DHT22;10898;48.072;11.682;2022-07-06T00:10:23;18.40;99.90
21473;DHT22;10898;48.072;11.682;2022-07-06T00:12:28;18.40;99.90
21473;DHT22;10898;48.072;11.682;2022-07-06T00:14:32;18.50;99.90
21473;DHT22;10898;48.072;11.682;2022-07-06T00:16:35;18.50;99.90
21473;DHT22;10898;48.072;11.682;2022-07-06T00:18:38;18.50;99.90
21473;DHT22;10898;48.072;11.682;2022-07-06T00:20:43;18.50;99.90
21473;DHT22;10898;48.072;11.682;2022-07-06T00:22:47;18.50;99.90
21473;DHT22;10898;48.072;11.682;2022-07-06T00:24:51;18.60;99.90
21473;DHT22;10898;48.072;11.682;2022-07-06T00:26:53;18.70;99.90
21473;DHT22;10898;48.072;11.682;2022-07-06T00:28:57;18.70;99.90
21473;DHT22;10898;48.072;11.682;2022-07-06T00:31:00;18.70;99.90
21473;DHT22;10898;48.072;11.682;2022-07-06T00:33:03;18.70;99.90
21473;DHT22;10898;48.072;11.682;2022-07-06T00:35:07;18.70;99.90
21473;DHT22;10898;48.072;11.682;2022-07-06T00:37:10;18.70;99.90
21473;DHT22;10898;48.072;11.682;2022-07-06T00:39:15;18.70;99.90
21473;DHT22;10898;48.072;11.682;2022-07-06T00:41:21;18.70;99.90
21473;DHT22;10898;48.072;11.682;2022-07-06T00:43:25;18.70;99.90
21473;DHT22;10898;48.072;11.682;2022-07-06T00:45:29;18.70;99.90
21473;DHT22;10898;48.072;11.682;2022-07-06T00:47:32;18.70;99.90
21473;DHT22;10898;48.072;11.682;2022-07-06T00:49:34;18.60;99.90
21473;DHT22;10898;48.072;11.682;2022-07-06T00:51:57;18.60;99.90
21473;DHT22;10898;48.072;11.682;2022-07-06T00:54:04;18.60;99.90
21473;DHT22;10898;48.072;11.682;2022-07-06T00:56:10;18.60;99.90
21473;DHT22;10898;48.072;11.682;2022-07-06T00:58:13;18.60;99.90
21473;DHT22;10898;48.072;11.682;2022-07-06T01:00:18;18.50;99.90
21473;DHT22;10898;48.072;11.682;2022-07-06T01:02:22;18.50;99.90
21473;DHT22;10898;48.072;11.682;2022-07-06T01:04:26;18.50;99.90
21473;DHT22;10898;48.072;11.682;2022-07-06T01:06:32;18.50;99.90
21473;DHT22;10898;48.072;11.682;2022-07-06T01:08:35;18.50;99.90
21473;DHT22;10898;48.072;11.682;2022-07-06T01:10:39;18.40;99.90
21473;DHT22;10898;48.072;11.682;2022-07-06T01:12:45;18.40;99.90
21473;DHT22;10898;48.072;11.682;2022-07-06T01:14:49;18.40;99.90
21473;DHT22;10898;48.072;11.682;2022-07-06T01:16:57;18.40;99.90
21473;DHT22;10898;48.072;11.682;2022-07-06T01:19:00;18.40;99.90
21473;DHT22;10898;48.072;11.682;2022-07-06T01:21:12;18.40;99.90
21473;DHT22;10898;48.072;11.682;2022-07-06T01:23:16;18.40;99.90
21473;DHT22;10898;48.072;11.682;2022-07-06T01:25:21;18.40;99.90
21473;DHT22;10898;48.072;11.682;2022-07-06T01:27:25;18.40;99.90
21473;DHT22;10898;48.072;11.682;2022-07-06T01:29:29;18.30;99.90
21473;DHT22;10898;48.072;11.682;2022-07-06T01:31:32;18.30;99.90
21473;DHT22;10898;48.072;11.682;2022-07-06T01:33:37;18.30;99.90
21473;DHT22;10898;48.072;11.682;2022-07-06T01:35:45;18.30;99.90
21473;DHT22;10898;48.072;11.682;2022-07-06T01:37:48;18.20;99.90
21473;DHT22;10898;48.072;11.682;2022-07-06T01:39:53;18.20;99.90
21473;DHT22;10898;48.072;11.682;2022-07-06T01:41:57;18.20;99.90
21473;DHT22;10898;48.072;11.682;2022-07-06T01:44:01;18.20;99.90
21473;DHT22;10898;48.072;11.682;2022-07-06T01:46:05;18.10;99.90
21473;DHT22;10898;48.072;11.682;2022-07-06T01:48:10;18.10;99.90
21473;DHT22;10898;48.072;11.682;2022-07-06T01:50:14;18.10;99.90
21473;DHT22;10898;48.072;11.682;2022-07-06T01:52:16;18.00;99.90
21473;DHT22;10898;48.072;11.682;2022-07-06T01:54:20;18.00;99.90
21473;DHT22;10898;48.072;11.682;2022-07-06T01:56:24;18.00;99.90
21473;DHT22;10898;48.072;11.682;2022-07-06T01:58:29;17.90;99.90
21473;DHT22;10898;48.072;11.682;2022-07-06T02:00:33;17.90;99.90
21473;DHT22;10898;48.072;11.682;2022-07-06T02:02:36;17.90;99.90
21473;DHT22;10898;48.072;11.682;2022-07-06T02:04:40;17.90;99.90
21473;DHT22;10898;48.072;11.682;2022-07-06T02:06:44;17.90;99.90
21473;DHT22;10898;48.072;11.682;2022-07-06T02:08:47;17.80;99.90
21473;DHT22;10898;48.072;11.682;2022-07-06T02:10:51;17.80;99.90
21473;DHT22;10898;48.072;11.682;2022-07-06T02:12:55;17.80;99.90
21473;DHT22;10898;48.072;11.682;2022-07-06T02:14:59;17.80;99.90
21473;DHT22;10898;48.072;11.682;2022-07-06T02:17:03;17.80;99.90
21473;DHT22;10898;48.072;11.682;2022-07-06T02:19:08;17.80;99.90
21473;DHT22;10898;48.072;11.682;2022-07-06T02:21:11;17.80;99.90
21473;DHT22;10898;48.072;11.682;2022-07-06T02:23:17;17.70;99.90
21473;DHT22;10898;48.072;11.682;2022-07-06T02:25:22;17.70;99.90
21473;DHT22;10898;48.072;11.682;2022-07-06T02:27:26;17.70;99.90
21473;DHT22;10898;48.072;11.682;2022-07-06T02:29:29;17.70;99.90
21473;DHT22;10898;48.072;11.682;2022-07-06T02:31:32;17.70;99.90
21473;DHT22;10898;48.072;11.682;2022-07-06T02:33:35;17.60;99.90
21473;DHT22;10898;48.072;11.682;2022-07-06T02:35:38;17.60;99.90
21473;DHT22;10898;48.072;11.682;2022-07-06T02:37:44;17.60;99.90
21473;DHT22;10898;48.072;11.682;2022-07-06T02:39:48;17.60;99.90
21473;DHT22;10898;48.072;11.682;2022-07-06T02:41:54;17.60;99.90
21473;DHT22;10898;48.072;11.682;2022-07-06T02:43:57;17.50;99.90
21473;DHT22;10898;48.072;11.682;2022-07-06T02:46:02;17.50;99.90
21473;DHT22;10898;48.072;11.682;2022-07-06T02:48:06;17.50;99.90
21473;DHT22;10898;48.072;11.682;2022-07-06T02:50:11;17.50;99.90
21473;DHT22;10898;48.072;11.682;2022-07-06T02:52:19;17.50;99.90
21473;DHT22;10898;48.072;11.682;2022-07-06T02:54:23;17.40;99.90
21473;DHT22;10898;48.072;11.682;2022-07-06T02:56:27;17.40;99.90
21473;DHT22;10898;48.072;11.682;2022-07-06T02:58:29;17.40;99.90
21473;DHT22;10898;48.072;11.682;2022-07-06T03:00:32;17.30;99.90
21473;DHT22;10898;48.072;11.682;2022-07-06T03:02:37;17.30;99.90
21473;DHT22;10898;48.072;11.682;2022-07-06T03:04:41;17.30;99.90
21473;DHT22;10898;48.072;11.682;2022-07-06T03:06:44;17.30;99.90
21473;DHT22;10898;48.072;11.682;2022-07-06T03:08:47;17.20;99.90
21473;DHT22;10898;48.072;11.682;2022-07-06T03:10:51;17.20;99.90
21473;DHT22;10898;48.072;11.682;2022-07-06T03:12:56;17.20;99.90
21473;DHT22;10898;48.072;11.682;2022-07-06T03:14:59;17.20;99.90
21473;DHT22;10898;48.072;11.682;2022-07-06T03:17:03;17.20;99.90
21473;DHT22;10898;48.072;11.682;2022-07-06T03:19:06;17.10;99.90
21473;DHT22;10898;48.072;11.682;2022-07-06T03:21:11;17.10;99.90
21473;DHT22;10898;48.072;11.682;2022-07-06T03:23:14;17.10;99.90
21473;DHT22;10898;48.072;11.682;2022-07-06T03:25:17;17.10;99.90
21473;DHT22;10898;48.072;11.682;2022-07-06T03:27:20;17.10;99.90
21473;DHT22;10898;48.072;11.682;2022-07-06T03:29:23;17.10;99.90
21473;DHT22;10898;48.072;11.682;2022-07-06T03:31:26;17.00;99.90
21473;DHT22;10898;48.072;11.682;2022-07-06T03:33:29;17.10;99.90
21473;DHT22;10898;48.072;11.682;2022-07-06T03:35:32;17.10;99.90
21473;DHT22;10898;48.072;11.682;2022-07-06T03:37:36;17.00;99.90
21473;DHT22;10898;48.072;11.682;2022-07-06T03:39:40;17.00;99.90
21473;DHT22;10898;48.072;11.682;2022-07-06T03:41:43;17.00;99.90
21473;DHT22;10898;48.072;11.682;2022-07-06T03:43:47;17.00;99.90
21473;DHT22;10898;48.072;11.682;2022-07-06T03:45:50;17.00;99.90
21473;DHT22;10898;48.072;11.682;2022-07-06T03:47:53;17.00;99.90
21473;DHT22;10898;48.072;11.682;2022-07-06T03:49:56;17.00;99.90
21473;DHT22;10898;48.072;11.682;2022-07-06T03:51:59;17.00;99.90
21473;DHT22;10898;48.072;11.682;2022-07-06T03:54:03;17.00;99.90
21473;DHT22;10898;48.072;11.682;2022-07-06T03:56:08;17.00;99.90
21473;DHT22;10898;48.072;11.682;2022-07-06T03:58:30;17.00;99.90
21473;DHT22;10898;48.072;11.682;2022-07-06T04:00:33;17.00;99.90
21473;DHT22;10898;48.072;11.682;2022-07-06T04:02:37;17.00;99.90
21473;DHT22;10898;48.072;11.682;2022-07-06T04:04:41;17.00;99.90
21473;DHT22;10898;48.072;11.682;2022-07-06T04:06:44;17.00;99.90
21473;DHT22;10898;48.072;11.682;2022-07-06T04:08:48;17.00;99.90
21473;DHT22;10898;48.072;11.682;2022-07-06T04:10:51;17.00;99.90
21473;DHT22;10898;48.072;11.682;2022-07-06T04:12:54;17.00;99.90
21473;DHT22;10898;48.072;11.682;2022-07-06T04:14:58;17.00;99.90
21473;DHT22;10898;48.072;11.682;2022-07-06T04:17:02;17.00;99.90
21473;DHT22;10898;48.072;11.682;2022-07-06T04:19:24;17.00;99.90
21473;DHT22;10898;48.072;11.682;2022-07-06T04:21:28;17.10;99.90
21473;DHT22;10898;48.072;11.682;2022-07-06T04:23:30;17.10;99.90
21473;DHT22;10898;48.072;11.682;2022-07-06T04:25:34;17.10;99.90
21473;DHT22;10898;48.072;11.682;2022-07-06T04:27:39;17.20;99.90
21473;DHT22;10898;48.072;11.682;2022-07-06T04:29:43;17.20;99.90
21473;DHT22;10898;48.072;11.682;2022-07-06T04:31:45;17.20;99.90
21473;DHT22;10898;48.072;11.682;2022-07-06T04:33:49;17.20;99.90
21473;DHT22;10898;48.072;11.682;2022-07-06T04:35:51;17.20;99.90
21473;DHT22;10898;48.072;11.682;2022-07-06T04:37:55;17.30;99.90
21473;DHT22;10898;48.072;11.682;2022-07-06T04:39:59;17.40;99.90
21473;DHT22;10898;48.072;11.682;2022-07-06T04:42:03;17.40;99.90
21473;DHT22;10898;48.072;11.682;2022-07-06T04:44:06;17.50;99.90
21473;DHT22;10898;48.072;11.682;2022-07-06T04:46:09;17.50;99.90
21473;DHT22;10898;48.072;11.682;2022-07-06T04:48:13;17.60;99.90
21473;DHT22;10898;48.072;11.682;2022-07-06T04:50:16;17.60;99.90
21473;DHT22;10898;48.072;11.682;2022-07-06T04:52:23;17.70;99.90
21473;DHT22;10898;48.072;11.682;2022-07-06T04:54:26;17.70;99.90
21473;DHT22;10898;48.072;11.682;2022-07-06T04:56:32;17.80;99.90
21473;DHT22;10898;48.072;11.682;2022-07-06T04:58:34;17.80;99.90
21473;DHT22;10898;48.072;11.682;2022-07-06T05:00:38;17.90;99.90
21473;DHT22;10898;48.072;11.682;2022-07-06T05:02:42;17.90;99.90
21473;DHT22;10898;48.072;11.682;2022-07-06T05:04:47;17.90;99.90
21473;DHT22;10898;48.072;11.682;2022-07-06T05:06:50;18.00;99.90
21473;DHT22;10898;48.072;11.682;2022-07-06T05:08:53;18.00;99.90
21473;DHT22;10898;48.072;11.682;2022-07-06T05:10:56;18.00;99.90
21473;DHT22;10898;48.072;11.682;2022-07-06T05:13:00;18.00;99.90
21473;DHT22;10898;48.072;11.682;2022-07-06T05:15:05;18.10;99.90
21473;DHT22;10898;48.072;11.682;2022-07-06T05:17:08;18.10;99.90
21473;DHT22;10898;48.072;11.682;2022-07-06T05:19:12;18.10;99.90
21473;DHT22;10898;48.072;11.682;2022-07-06T05:21:15;18.10;99.90
21473;DHT22;10898;48.072;11.682;2022-07-06T05:23:18;18.20;99.90
21473;DHT22;10898;48.072;11.682;2022-07-06T05:25:21;18.20;99.90
21473;DHT22;10898;48.072;11.682;2022-07-06T05:27:27;18.30;99.90
21473;DHT22;10898;48.072;11.682;2022-07-06T05:29:30;18.30;99.90
21473;DHT22;10898;48.072;11.682;2022-07-06T05:31:34;18.40;99.90
21473;DHT22;10898;48.072;11.682;2022-07-06T05:33:36;18.40;99.90
21473;DHT22;10898;48.072;11.682;2022-07-06T05:35:40;18.50;99.90
21473;DHT22;10898;48.072;11.682;2022-07-06T05:37:53;18.50;99.90
21473;DHT22;10898;48.072;11.682;2022-07-06T05:39:57;18.50;99.90
21473;DHT22;10898;48.072;11.682;2022-07-06T05:42:00;18.60;99.90
21473;DHT22;10898;48.072;11.682;2022-07-06T05:44:03;18.60;99.90
21473;DHT22;10898;48.072;11.682;2022-07-06T05:46:08;18.70;99.90
21473;DHT22;10898;48.072;11.682;2022-07-06T05:48:12;18.80;99.90
21473;DHT22;10898;48.072;11.682;2022-07-06T05:50:34;18.90;99.90
21473;DHT22;10898;48.072;11.682;2022-07-06T05:52:41;18.90;99.90
21473;DHT22;10898;48.072;11.682;2022-07-06T05:54:44;19.00;99.90
21473;DHT22;10898;48.072;11.682;2022-07-06T05:56:48;19.00;99.90
21473;DHT22;10898;48.072;11.682;2022-07-06T05:58:51;19.10;99.90
21473;DHT22;10898;48.072;11.682;2022-07-06T06:00:54;19.10;99.90
21473;DHT22;10898;48.072;11.682;2022-07-06T06:02:58;19.20;99.90
21473;DHT22;10898;48.072;11.682;2022-07-06T06:05:02;19.20;99.90
21473;DHT22;10898;48.072;11.682;2022-07-06T06:07:06;19.30;99.90
21473;DHT22;10898;48.072;11.682;2022-07-06T06:09:09;19.30;99.90
21473;DHT22;10898;48.072;11.682;2022-07-06T06:11:12;19.30;99.90
21473;DHT22;10898;48.072;11.682;2022-07-06T06:13:15;19.30;99.90
21473;DHT22;10898;48.072;11.682;2022-07-06T06:15:18;19.40;99.90
21473;DHT22;10898;48.072;11.682;2022-07-06T06:17:21;19.40;99.90
21473;DHT22;10898;48.072;11.682;2022-07-06T06:19:25;19.40;99.90
21473;DHT22;10898;48.072;11.682;2022-07-06T06:21:28;19.50;99.90
21473;DHT22;10898;48.072;11.682;2022-07-06T06:23:30;19.50;99.90
21473;DHT22;10898;48.072;11.682;2022-07-06T06:25:39;19.50;99.90
21473;DHT22;10898;48.072;11.682;2022-07-06T06:27:44;19.50;99.90
21473;DHT22;10898;48.072;11.682;2022-07-06T06:29:48;19.60;99.90
21473;DHT22;10898;48.072;11.682;2022-07-06T06:31:51;19.70;99.90
21473;DHT22;10898;48.072;11.682;2022-07-06T06:33:54;19.70;99.90
21473;DHT22;10898;48.072;11.682;2022-07-06T06:36:00;19.80;99.90
21473;DHT22;10898;48.072;11.682;2022-07-06T06:38:03;19.80;99.90
21473;DHT22;10898;48.072;11.682;2022-07-06T06:40:07;19.80;99.90
21473;DHT22;10898;48.072;11.682;2022-07-06T06:42:12;19.90;99.90
21473;DHT22;10898;48.072;11.682;2022-07-06T06:44:15;19.90;99.90
21473;DHT22;10898;48.072;11.682;2022-07-06T06:46:18;19.90;99.90
21473;DHT22;10898;48.072;11.682;2022-07-06T06:48:21;20.00;99.70
21473;DHT22;10898;48.072;11.682;2022-07-06T06:50:24;20.00;99.90
21473;DHT22;10898;48.072;11.682;2022-07-06T06:52:28;20.10;99.60
21473;DHT22;10898;48.072;11.682;2022-07-06T06:54:42;20.20;99.20
21473;DHT22;10898;48.072;11.682;2022-07-06T06:56:45;20.20;98.90
21473;DHT22;10898;48.072;11.682;2022-07-06T06:58:52;20.30;99.20
21473;DHT22;10898;48.072;11.682;2022-07-06T07:01:15;20.30;98.60
21473;DHT22;10898;48.072;11.682;2022-07-06T07:03:19;20.30;97.70
21473;DHT22;10898;48.072;11.682;2022-07-06T07:05:22;20.40;97.50
21473;DHT22;10898;48.072;11.682;2022-07-06T07:07:27;20.40;97.30
21473;DHT22;10898;48.072;11.682;2022-07-06T07:09:30;20.40;96.50
21473;DHT22;10898;48.072;11.682;2022-07-06T07:11:36;20.50;96.50
21473;DHT22;10898;48.072;11.682;2022-07-06T07:13:40;20.50;96.60
21473;DHT22;10898;48.072;11.682;2022-07-06T07:15:43;20.60;96.40
21473;DHT22;10898;48.072;11.682;2022-07-06T07:17:48;20.60;95.50
21473;DHT22;10898;48.072;11.682;2022-07-06T07:19:52;20.60;95.20
21473;DHT22;10898;48.072;11.682;2022-07-06T07:21:55;20.70;95.20
21473;DHT22;10898;48.072;11.682;2022-07-06T07:24:00;20.70;94.50
21473;DHT22;10898;48.072;11.682;2022-07-06T07:26:12;20.80;94.50
21473;DHT22;10898;48.072;11.682;2022-07-06T07:28:15;20.80;93.80
21473;DHT22;10898;48.072;11.682;2022-07-06T07:30:18;20.90;92.70
21473;DHT22;10898;48.072;11.682;2022-07-06T07:32:22;20.90;92.30
21473;DHT22;10898;48.072;11.682;2022-07-06T07:34:25;21.00;91.90
21473;DHT22;10898;48.072;11.682;2022-07-06T07:36:28;21.00;91.40
21473;DHT22;10898;48.072;11.682;2022-07-06T07:38:32;21.10;91.60
21473;DHT22;10898;48.072;11.682;2022-07-06T07:40:36;21.10;92.00
21473;DHT22;10898;48.072;11.682;2022-07-06T07:42:39;21.20;91.40
21473;DHT22;10898;48.072;11.682;2022-07-06T07:44:44;21.20;91.40
21473;DHT22;10898;48.072;11.682;2022-07-06T07:46:48;21.40;91.50
21473;DHT22;10898;48.072;11.682;2022-07-06T07:48:52;21.40;91.20
21473;DHT22;10898;48.072;11.682;2022-07-06T07:50:56;21.50;89.50
21473;DHT22;10898;48.072;11.682;2022-07-06T07:53:01;21.60;89.20
21473;DHT22;10898;48.072;11.682;2022-07-06T07:55:06;21.60;88.00
21473;DHT22;10898;48.072;11.682;2022-07-06T07:57:30;21.60;87.80
21473;DHT22;10898;48.072;11.682;2022-07-06T07:59:34;21.60;88.10
21473;DHT22;10898;48.072;11.682;2022-07-06T08:01:37;21.60;87.00
21473;DHT22;10898;48.072;11.682;2022-07-06T08:03:40;21.60;87.00
21473;DHT22;10898;48.072;11.682;2022-07-06T08:05:44;21.60;87.50
21473;DHT22;10898;48.072;11.682;2022-07-06T08:07:48;21.60;87.20
21473;DHT22;10898;48.072;11.682;2022-07-06T08:09:52;21.70;87.60
21473;DHT22;10898;48.072;11.682;2022-07-06T08:11:54;21.70;87.90
21473;DHT22;10898;48.072;11.682;2022-07-06T08:13:58;21.80;86.20
21473;DHT22;10898;48.072;11.682;2022-07-06T08:16:01;21.90;86.20
21473;DHT22;10898;48.072;11.682;2022-07-06T08:18:05;21.90;86.70
21473;DHT22;10898;48.072;11.682;2022-07-06T08:20:09;22.00;86.80
21473;DHT22;10898;48.072;11.682;2022-07-06T08:22:14;22.10;86.10
21473;DHT22;10898;48.072;11.682;2022-07-06T08:24:17;22.10;84.90
21473;DHT22;10898;48.072;11.682;2022-07-06T08:26:24;22.20;84.80
21473;DHT22;10898;48.072;11.682;2022-07-06T08:28:28;22.30;83.50
21473;DHT22;10898;48.072;11.682;2022-07-06T08:30:32;22.30;81.50
21473;DHT22;10898;48.072;11.682;2022-07-06T08:32:39;22.40;80.70
21473;DHT22;10898;48.072;11.682;2022-07-06T08:35:04;22.50;78.80
21473;DHT22;10898;48.072;11.682;2022-07-06T08:37:07;22.50;78.30
21473;DHT22;10898;48.072;11.682;2022-07-06T08:39:10;22.50;78.00
21473;DHT22;10898;48.072;11.682;2022-07-06T08:41:15;22.60;77.30
21473;DHT22;10898;48.072;11.682;2022-07-06T08:43:26;22.70;77.40
21473;DHT22;10898;48.072;11.682;2022-07-06T08:45:34;22.70;73.50
21473;DHT22;10898;48.072;11.682;2022-07-06T08:47:38;22.70;72.30
21473;DHT22;10898;48.072;11.682;2022-07-06T08:49:45;22.70;73.30
21473;DHT22;10898;48.072;11.682;2022-07-06T08:51:49;22.80;72.90
21473;DHT22;10898;48.072;11.682;2022-07-06T08:53:53;22.80;71.50
21473;DHT22;10898;48.072;11.682;2022-07-06T08:55:59;22.80;72.40
21473;DHT22;10898;48.072;11.682;2022-07-06T08:58:02;22.90;71.90
21473;DHT22;10898;48.072;11.682;2022-07-06T09:00:10;22.90;70.60
21473;DHT22;10898;48.072;11.682;2022-07-06T09:02:14;22.90;71.70
21473;DHT22;10898;48.072;11.682;2022-07-06T09:04:19;22.90;71.40
21473;DHT22;10898;48.072;11.682;2022-07-06T09:06:28;22.90;70.90
21473;DHT22;10898;48.072;11.682;2022-07-06T09:08:32;23.00;70.50
21473;DHT22;10898;48.072;11.682;2022-07-06T09:10:36;22.90;71.20
21473;DHT22;10898;48.072;11.682;2022-07-06T09:12:41;22.90;72.00
21473;DHT22;10898;48.072;11.682;2022-07-06T09:14:45;23.00;71.70
21473;DHT22;10898;48.072;11.682;2022-07-06T09:17:03;23.10;73.10
21473;DHT22;10898;48.072;11.682;2022-07-06T09:19:10;23.20;73.00
21473;DHT22;10898;48.072;11.682;2022-07-06T09:21:29;23.20;73.60
21473;DHT22;10898;48.072;11.682;2022-07-06T09:23:38;23.30;73.40
21473;DHT22;10898;48.072;11.682;2022-07-06T09:25:40;23.40;73.80
21473;DHT22;10898;48.072;11.682;2022-07-06T09:27:47;23.50;74.10
21473;DHT22;10898;48.072;11.682;2022-07-06T09:29:53;23.70;72.50
21473;DHT22;10898;48.072;11.682;2022-07-06T09:32:03;23.80;72.30
21473;DHT22;10898;48.072;11.682;2022-07-06T09:34:09;23.80;70.60
21473;DHT22;10898;48.072;11.682;2022-07-06T09:38:48;24.10;70.60
21473;DHT22;10898;48.072;11.682;2022-07-06T09:40:50;24.10;71.50
21473;DHT22;10898;48.072;11.682;2022-07-06T09:43:15;24.10;70.40
21473;DHT22;10898;48.072;11.682;2022-07-06T09:45:22;24.20;69.80
21473;DHT22;10898;48.072;11.682;2022-07-06T09:47:28;24.30;71.20
21473;DHT22;10898;48.072;11.682;2022-07-06T09:49:39;24.40;71.40
21473;DHT22;10898;48.072;11.682;2022-07-06T09:51:45;24.60;69.20
21473;DHT22;10898;48.072;11.682;2022-07-06T09:53:51;24.60;68.60
21473;DHT22;10898;48.072;11.682;2022-07-06T09:55:58;24.60;69.10
21473;DHT22;10898;48.072;11.682;2022-07-06T09:58:03;24.40;68.40
21473;DHT22;10898;48.072;11.682;2022-07-06T10:00:08;24.40;68.80
21473;DHT22;10898;48.072;11.682;2022-07-06T10:02:13;24.30;68.30
21473;DHT22;10898;48.072;11.682;2022-07-06T10:04:19;24.20;66.60
21473;DHT22;10898;48.072;11.682;2022-07-06T10:06:25;24.10;65.30
21473;DHT22;10898;48.072;11.682;2022-07-06T10:08:32;24.10;65.60
21473;DHT22;10898;48.072;11.682;2022-07-06T10:10:38;24.10;65.70
21473;DHT22;10898;48.072;11.682;2022-07-06T10:12:43;24.20;65.60
21473;DHT22;10898;48.072;11.682;2022-07-06T10:14:48;24.20;66.00
21473;DHT22;10898;48.072;11.682;2022-07-06T10:16:57;24.30;65.90
21473;DHT22;10898;48.072;11.682;2022-07-06T10:19:07;24.30;65.60
21473;DHT22;10898;48.072;11.682;2022-07-06T10:21:13;24.40;65.60
21473;DHT22;10898;48.072;11.682;2022-07-06T10:23:20;24.40;65.80
21473;DHT22;10898;48.072;11.682;2022-07-06T10:25:24;24.40;65.80
21473;DHT22;10898;48.072;11.682;2022-07-06T10:27:29;24.40;65.70
21473;DHT22;10898;48.072;11.682;2022-07-06T10:29:33;24.40;67.50
21473;DHT22;10898;48.072;11.682;2022-07-06T10:31:41;24.50;66.40
21473;DHT22;10898;48.072;11.682;2022-07-06T10:33:48;24.60;65.10
21473;DHT22;10898;48.072;11.682;2022-07-06T10:35:52;24.50;63.30
21473;DHT22;10898;48.072;11.682;2022-07-06T10:38:09;24.50;64.00
21473;DHT22;10898;48.072;11.682;2022-07-06T10:40:16;24.60;62.30
21473;DHT22;10898;48.072;11.682;2022-07-06T10:44:47;24.60;60.20
21473;DHT22;10898;48.072;11.682;2022-07-06T10:46:57;24.60;59.90
21473;DHT22;10898;48.072;11.682;2022-07-06T10:49:15;24.70;62.00
21473;DHT22;10898;48.072;11.682;2022-07-06T10:51:40;24.80;60.70
21473;DHT22;10898;48.072;11.682;2022-07-06T10:53:59;24.80;60.50
21473;DHT22;10898;48.072;11.682;2022-07-06T10:56:11;24.90;57.80
21473;DHT22;10898;48.072;11.682;2022-07-06T10:58:50;24.80;58.20
21473;DHT22;10898;48.072;11.682;2022-07-06T11:01:00;24.80;59.10
21473;DHT22;10898;48.072;11.682;2022-07-06T11:05:41;25.00;59.70
21473;DHT22;10898;48.072;11.682;2022-07-06T11:08:06;25.10;59.40
21473;DHT22;10898;48.072;11.682;2022-07-06T11:10:11;25.20;61.00
21473;DHT22;10898;48.072;11.682;2022-07-06T11:12:18;25.30;60.50
21473;DHT22;10898;48.072;11.682;2022-07-06T11:14:22;25.30;60.60
21473;DHT22;10898;48.072;11.682;2022-07-06T11:16:27;25.30;62.30
21473;DHT22;10898;48.072;11.682;2022-07-06T11:18:41;25.40;62.90
21473;DHT22;10898;48.072;11.682;2022-07-06T11:21:20;25.50;61.30
21473;DHT22;10898;48.072;11.682;2022-07-06T11:23:28;25.60;62.80
21473;DHT22;10898;48.072;11.682;2022-07-06T11:25:32;25.70;62.30
21473;DHT22;10898;48.072;11.682;2022-07-06T11:27:40;25.70;61.30
21473;DHT22;10898;48.072;11.682;2022-07-06T11:29:45;25.70;61.40
21473;DHT22;10898;48.072;11.682;2022-07-06T11:31:53;25.70;61.10
21473;DHT22;10898;48.072;11.682;2022-07-06T11:33:56;25.80;61.20
21473;DHT22;10898;48.072;11.682;2022-07-06T11:36:32;25.80;61.00
21473;DHT22;10898;48.072;11.682;2022-07-06T11:38:44;25.90;59.60
21473;DHT22;10898;48.072;11.682;2022-07-06T11:40:53;25.90;59.10
21473;DHT22;10898;48.072;11.682;2022-07-06T11:42:58;25.90;58.40
21473;DHT22;10898;48.072;11.682;2022-07-06T11:45:05;25.90;58.20
21473;DHT22;10898;48.072;11.682;2022-07-06T11:47:10;25.90;59.30
21473;DHT22;10898;48.072;11.682;2022-07-06T11:49:13;26.00;58.60
21473;DHT22;10898;48.072;11.682;2022-07-06T11:51:17;26.10;57.80
21473;DHT22;10898;48.072;11.682;2022-07-06T11:53:21;26.10;55.40
21473;DHT22;10898;48.072;11.682;2022-07-06T11:55:27;26.00;55.20
21473;DHT22;10898;48.072;11.682;2022-07-06T11:57:32;25.90;55.10
21473;DHT22;10898;48.072;11.682;2022-07-06T11:59:38;25.90;55.70
21473;DHT22;10898;48.072;11.682;2022-07-06T12:01:44;25.90;55.70
21473;DHT22;10898;48.072;11.682;2022-07-06T12:03:48;25.90;56.00
21473;DHT22;10898;48.072;11.682;2022-07-06T12:05:51;26.00;55.60
21473;DHT22;10898;48.072;11.682;2022-07-06T12:08:06;25.90;55.40
21473;DHT22;10898;48.072;11.682;2022-07-06T12:10:10;25.90;56.50
21473;DHT22;10898;48.072;11.682;2022-07-06T12:12:15;25.90;56.90
21473;DHT22;10898;48.072;11.682;2022-07-06T12:14:21;26.00;55.90
21473;DHT22;10898;48.072;11.682;2022-07-06T12:16:36;26.00;55.80
21473;DHT22;10898;48.072;11.682;2022-07-06T12:18:40;26.10;57.30
21473;DHT22;10898;48.072;11.682;2022-07-06T12:20:44;26.20;57.00
21473;DHT22;10898;48.072;11.682;2022-07-06T12:22:49;26.20;55.20
21473;DHT22;10898;48.072;11.682;2022-07-06T12:24:52;26.30;54.70
21473;DHT22;10898;48.072;11.682;2022-07-06T12:26:55;26.30;56.20
21473;DHT22;10898;48.072;11.682;2022-07-06T12:29:05;26.40;55.10
21473;DHT22;10898;48.072;11.682;2022-07-06T12:31:11;26.50;53.90
21473;DHT22;10898;48.072;11.682;2022-07-06T12:33:16;26.60;55.20
21473;DHT22;10898;48.072;11.682;2022-07-06T12:35:24;26.70;55.30
21473;DHT22;10898;48.072;11.682;2022-07-06T12:37:27;26.70;53.60
21473;DHT22;10898;48.072;11.682;2022-07-06T12:39:31;26.70;55.30
21473;DHT22;10898;48.072;11.682;2022-07-06T12:41:35;26.70;56.30
21473;DHT22;10898;48.072;11.682;2022-07-06T12:43:41;26.70;54.20
21473;DHT22;10898;48.072;11.682;2022-07-06T12:45:45;26.60;54.00
21473;DHT22;10898;48.072;11.682;2022-07-06T12:48:03;26.60;54.50
21473;DHT22;10898;48.072;11.682;2022-07-06T12:50:10;26.70;54.20
21473;DHT22;10898;48.072;11.682;2022-07-06T12:52:17;26.80;53.20
21473;DHT22;10898;48.072;11.682;2022-07-06T12:54:21;26.80;52.20
21473;DHT22;10898;48.072;11.682;2022-07-06T12:56:30;26.70;53.80
21473;DHT22;10898;48.072;11.682;2022-07-06T12:58:33;26.70;53.00
21473;DHT22;10898;48.072;11.682;2022-07-06T13:00:46;26.80;52.60
21473;DHT22;10898;48.072;11.682;2022-07-06T13:02:51;26.90;52.40
21473;DHT22;10898;48.072;11.682;2022-07-06T13:05:16;26.90;52.20
21473;DHT22;10898;48.072;11.682;2022-07-06T13:07:20;27.00;52.80
21473;DHT22;10898;48.072;11.682;2022-07-06T13:09:24;27.00;53.00